Tropical Cyclones
[Index]
Main Index Home Page Stock Weather Photos Extreme Storms Discussion Storm News and Storm Chasing Reports Tropical Cyclones / Hurricanes / Typhoons Weather Data and Links Wild Fires / Bushfires Weather Observation Techniques Weather Picture Catalogue Tornado Pictures and Reports Stock Video Footage and DVDs for sale
Season 2001-2002 Tropical Cyclone DIANNE-JERY Track Map
Season 2001-2002 Summaries (Operational Data): [AU] [SIO] [SPAC] [SH]
<<- Previous TC | 2001-2002 Season | Next TC ->>

click for intensity scale information  Lat/long Grid: Show Hide

 Date Labels: Show Hide

Operational Tropical Cyclone Data : JTWC Advisories

Name: DIANNE-JERY
Number: 0221

05 Apr 2002 00:00 UTC to 13 Apr 2002 12:00 UTC

    date/time    lat    long     hPa   cat  kts
2002-04-05 00   10.0   101.0    1006                     
2002-04-05 18   10.5   100.9    1005                     
2002-04-06 00   11.0   101.0    1004                     
2002-04-06 11   11.1   101.1    1005                     
2002-04-06 18   12.1    99.1    1004                     
2002-04-07 00   12.4    98.2                             
2002-04-07 03   12.2    97.8     998         30          
2002-04-07 05   12.5    97.2     995    1    45          
2002-04-07 11   12.9    95.9     990    1    45          
2002-04-07 16   13.5    94.9     980    2    55          
2002-04-07 22   13.7    93.6     980    2    55          
2002-04-08 04   14.6    92.3     975    2    60          
2002-04-08 10   15.5    91.1     970    2    60          
2002-04-08 16   15.6    90.1     960    3    75          
2002-04-08 18   15.7    90.0     970    2    60          
2002-04-09 00   16.6    89.5     954    3    80          
2002-04-09 06   17.2    88.6     955    3    80          
2002-04-09 12   17.6    88.2     958    3    75          
2002-04-09 18   18.3    87.9     962    3    70          
2002-04-10 00   18.9    87.8     962    3    70          
2002-04-10 06   19.3    87.8     965    3    70          
2002-04-10 12   20.2    87.9     975    2    60          
2002-04-10 18   20.5    87.9     980    2    55          
2002-04-11 00   21.3    87.9     984    2    50          
2002-04-11 06   22.0    89.0     988    1    40          
2002-04-11 12   22.8    89.0     997    1    40          
2002-04-11 18   23.6    89.3    1000    1    40          
2002-04-12 00   24.3    90.1    1000    1    40          
2002-04-12 06   25.7    91.3     999    1    40          
2002-04-12 15   27.0    93.6            1    40          
2002-04-12 18   28.0    95.0            1    35          
2002-04-13 04   29.1    96.7            1    35          
2002-04-13 08   29.2    98.4            1    35          
2002-04-13 12   29.5    99.5            1    35          
Winds are 10-min average.

Tropical cyclone tracks developed by Michael Bath using operational warnings and advisories and Google Maps.


[Australian Severe Weather index] [Copyright Notice] [Email Contacts] [Search This Site] [Privacy Policy]
Document: tropical_cyclone_dianne-jery.htm Updated: 28 May 2013